sensor_id;sensor_type;location;lat;lon;timestamp;temperature;humidity
81202;DHT22;71068;47.662;-2.750;2023-07-16T00:01:25;19.00;74.10
81202;DHT22;71068;47.662;-2.750;2023-07-16T00:03:53;19.00;74.10
81202;DHT22;71068;47.662;-2.750;2023-07-16T00:06:19;19.00;74.50
81202;DHT22;71068;47.662;-2.750;2023-07-16T00:08:50;19.00;74.60
81202;DHT22;71068;47.662;-2.750;2023-07-16T00:11:17;18.80;74.80
81202;DHT22;71068;47.662;-2.750;2023-07-16T00:13:49;18.70;74.90
81202;DHT22;71068;47.662;-2.750;2023-07-16T00:16:21;18.80;75.00
81202;DHT22;71068;47.662;-2.750;2023-07-16T00:18:49;18.80;75.00
81202;DHT22;71068;47.662;-2.750;2023-07-16T00:21:16;18.80;75.10
81202;DHT22;71068;47.662;-2.750;2023-07-16T00:23:42;18.80;75.10
81202;DHT22;71068;47.662;-2.750;2023-07-16T00:26:09;18.70;75.00
81202;DHT22;71068;47.662;-2.750;2023-07-16T00:28:36;18.80;75.00
81202;DHT22;71068;47.662;-2.750;2023-07-16T00:31:02;18.80;75.10
81202;DHT22;71068;47.662;-2.750;2023-07-16T00:33:28;18.80;75.10
81202;DHT22;71068;47.662;-2.750;2023-07-16T00:35:54;18.80;74.90
81202;DHT22;71068;47.662;-2.750;2023-07-16T00:38:20;18.80;74.80
81202;DHT22;71068;47.662;-2.750;2023-07-16T00:40:46;18.70;74.90
81202;DHT22;71068;47.662;-2.750;2023-07-16T00:43:14;18.70;75.10
81202;DHT22;71068;47.662;-2.750;2023-07-16T00:45:42;18.80;75.00
81202;DHT22;71068;47.662;-2.750;2023-07-16T00:48:17;18.80;75.00
81202;DHT22;71068;47.662;-2.750;2023-07-16T00:50:44;18.60;75.60
81202;DHT22;71068;47.662;-2.750;2023-07-16T00:53:14;18.70;75.40
81202;DHT22;71068;47.662;-2.750;2023-07-16T00:55:46;18.80;75.50
81202;DHT22;71068;47.662;-2.750;2023-07-16T00:58:15;18.70;75.60
81202;DHT22;71068;47.662;-2.750;2023-07-16T01:00:42;18.50;75.90
81202;DHT22;71068;47.662;-2.750;2023-07-16T01:03:15;18.70;75.60
81202;DHT22;71068;47.662;-2.750;2023-07-16T01:08:32;18.70;75.50
81202;DHT22;71068;47.662;-2.750;2023-07-16T01:11:02;18.50;76.50
81202;DHT22;71068;47.662;-2.750;2023-07-16T01:13:29;18.60;75.70
81202;DHT22;71068;47.662;-2.750;2023-07-16T01:15:55;18.60;75.50
81202;DHT22;71068;47.662;-2.750;2023-07-16T01:18:23;18.60;75.50
81202;DHT22;71068;47.662;-2.750;2023-07-16T01:20:51;18.60;75.50
81202;DHT22;71068;47.662;-2.750;2023-07-16T01:26:32;18.70;75.50
81202;DHT22;71068;47.662;-2.750;2023-07-16T01:29:35;18.60;75.50
81202;DHT22;71068;47.662;-2.750;2023-07-16T01:32:07;18.70;75.60
81202;DHT22;71068;47.662;-2.750;2023-07-16T01:34:34;18.70;75.70
81202;DHT22;71068;47.662;-2.750;2023-07-16T01:37:04;18.70;75.60
81202;DHT22;71068;47.662;-2.750;2023-07-16T01:39:31;18.70;75.70
81202;DHT22;71068;47.662;-2.750;2023-07-16T01:42:01;18.70;75.70
81202;DHT22;71068;47.662;-2.750;2023-07-16T01:44:27;18.80;75.70
81202;DHT22;71068;47.662;-2.750;2023-07-16T01:47:14;18.70;76.20
81202;DHT22;71068;47.662;-2.750;2023-07-16T01:49:49;18.70;75.80
81202;DHT22;71068;47.662;-2.750;2023-07-16T01:52:15;18.70;75.60
81202;DHT22;71068;47.662;-2.750;2023-07-16T01:54:41;18.60;75.70
81202;DHT22;71068;47.662;-2.750;2023-07-16T01:57:13;18.80;75.60
81202;DHT22;71068;47.662;-2.750;2023-07-16T01:59:40;18.60;75.90
81202;DHT22;71068;47.662;-2.750;2023-07-16T02:02:08;18.70;75.50
81202;DHT22;71068;47.662;-2.750;2023-07-16T02:04:34;18.70;75.50
81202;DHT22;71068;47.662;-2.750;2023-07-16T02:07:00;18.70;75.50
81202;DHT22;71068;47.662;-2.750;2023-07-16T02:09:29;18.70;75.50
81202;DHT22;71068;47.662;-2.750;2023-07-16T02:12:01;18.60;75.60
81202;DHT22;71068;47.662;-2.750;2023-07-16T02:14:28;18.70;75.50
81202;DHT22;71068;47.662;-2.750;2023-07-16T02:16:55;18.60;75.90
81202;DHT22;71068;47.662;-2.750;2023-07-16T02:19:21;18.60;75.70
81202;DHT22;71068;47.662;-2.750;2023-07-16T02:21:47;18.60;75.80
81202;DHT22;71068;47.662;-2.750;2023-07-16T02:24:14;18.60;75.80
81202;DHT22;71068;47.662;-2.750;2023-07-16T02:26:41;18.50;76.00
81202;DHT22;71068;47.662;-2.750;2023-07-16T02:29:07;18.50;76.00
81202;DHT22;71068;47.662;-2.750;2023-07-16T02:31:36;18.50;76.00
81202;DHT22;71068;47.662;-2.750;2023-07-16T02:34:02;18.60;75.90
81202;DHT22;71068;47.662;-2.750;2023-07-16T02:36:30;18.50;75.90
81202;DHT22;71068;47.662;-2.750;2023-07-16T02:39:03;18.50;76.00
81202;DHT22;71068;47.662;-2.750;2023-07-16T02:41:30;18.40;76.00
81202;DHT22;71068;47.662;-2.750;2023-07-16T02:44:00;18.30;76.30
81202;DHT22;71068;47.662;-2.750;2023-07-16T02:46:29;18.40;76.30
81202;DHT22;71068;47.662;-2.750;2023-07-16T02:48:55;18.40;76.00
81202;DHT22;71068;47.662;-2.750;2023-07-16T02:51:22;18.40;76.00
81202;DHT22;71068;47.662;-2.750;2023-07-16T02:53:49;18.40;76.10
81202;DHT22;71068;47.662;-2.750;2023-07-16T02:56:15;18.40;76.00
81202;DHT22;71068;47.662;-2.750;2023-07-16T02:58:43;18.50;75.90
81202;DHT22;71068;47.662;-2.750;2023-07-16T03:01:10;18.40;75.80
81202;DHT22;71068;47.662;-2.750;2023-07-16T03:03:38;18.40;75.90
81202;DHT22;71068;47.662;-2.750;2023-07-16T03:06:06;18.30;76.20
81202;DHT22;71068;47.662;-2.750;2023-07-16T03:08:35;18.40;75.90
81202;DHT22;71068;47.662;-2.750;2023-07-16T03:11:02;18.40;75.80
81202;DHT22;71068;47.662;-2.750;2023-07-16T03:13:28;18.40;75.80
81202;DHT22;71068;47.662;-2.750;2023-07-16T03:15:54;18.30;75.80
81202;DHT22;71068;47.662;-2.750;2023-07-16T03:18:31;18.30;76.10
81202;DHT22;71068;47.662;-2.750;2023-07-16T03:20:59;18.30;76.20
81202;DHT22;71068;47.662;-2.750;2023-07-16T03:23:25;18.30;76.00
81202;DHT22;71068;47.662;-2.750;2023-07-16T03:25:52;18.20;76.10
81202;DHT22;71068;47.662;-2.750;2023-07-16T03:28:20;18.30;76.10
81202;DHT22;71068;47.662;-2.750;2023-07-16T03:30:49;18.30;76.20
81202;DHT22;71068;47.662;-2.750;2023-07-16T03:33:17;18.20;76.50
81202;DHT22;71068;47.662;-2.750;2023-07-16T03:35:45;18.20;76.40
81202;DHT22;71068;47.662;-2.750;2023-07-16T03:38:13;18.30;76.20
81202;DHT22;71068;47.662;-2.750;2023-07-16T03:40:45;18.30;76.20
81202;DHT22;71068;47.662;-2.750;2023-07-16T03:43:13;18.30;76.10
81202;DHT22;71068;47.662;-2.750;2023-07-16T03:45:42;18.20;75.90
81202;DHT22;71068;47.662;-2.750;2023-07-16T03:48:10;18.30;75.80
81202;DHT22;71068;47.662;-2.750;2023-07-16T03:50:48;18.30;75.70
81202;DHT22;71068;47.662;-2.750;2023-07-16T03:53:14;18.30;75.70
81202;DHT22;71068;47.662;-2.750;2023-07-16T03:55:41;18.30;75.90
81202;DHT22;71068;47.662;-2.750;2023-07-16T03:58:08;18.30;75.70
81202;DHT22;71068;47.662;-2.750;2023-07-16T04:00:41;18.30;75.80
81202;DHT22;71068;47.662;-2.750;2023-07-16T04:03:07;18.30;75.80
81202;DHT22;71068;47.662;-2.750;2023-07-16T04:05:37;18.30;75.80
81202;DHT22;71068;47.662;-2.750;2023-07-16T04:08:09;18.20;75.90
81202;DHT22;71068;47.662;-2.750;2023-07-16T04:10:36;18.20;76.10
81202;DHT22;71068;47.662;-2.750;2023-07-16T04:13:04;18.20;76.00
81202;DHT22;71068;47.662;-2.750;2023-07-16T04:15:34;18.20;76.00
81202;DHT22;71068;47.662;-2.750;2023-07-16T04:18:02;18.30;76.00
81202;DHT22;71068;47.662;-2.750;2023-07-16T04:20:31;18.30;75.90
81202;DHT22;71068;47.662;-2.750;2023-07-16T04:22:59;18.30;75.90
81202;DHT22;71068;47.662;-2.750;2023-07-16T04:25:25;18.30;75.80
81202;DHT22;71068;47.662;-2.750;2023-07-16T04:27:53;18.20;75.90
81202;DHT22;71068;47.662;-2.750;2023-07-16T04:30:19;18.20;76.10
81202;DHT22;71068;47.662;-2.750;2023-07-16T04:32:46;18.20;76.10
81202;DHT22;71068;47.662;-2.750;2023-07-16T04:35:12;18.20;76.10
81202;DHT22;71068;47.662;-2.750;2023-07-16T04:37:38;18.20;76.00
81202;DHT22;71068;47.662;-2.750;2023-07-16T04:40:10;18.20;76.30
81202;DHT22;71068;47.662;-2.750;2023-07-16T04:42:37;18.20;76.10
81202;DHT22;71068;47.662;-2.750;2023-07-16T04:45:04;18.20;76.20
81202;DHT22;71068;47.662;-2.750;2023-07-16T04:47:31;18.20;76.20
81202;DHT22;71068;47.662;-2.750;2023-07-16T04:50:00;18.30;76.10
81202;DHT22;71068;47.662;-2.750;2023-07-16T04:52:26;18.20;76.20
81202;DHT22;71068;47.662;-2.750;2023-07-16T04:54:59;18.20;76.20
81202;DHT22;71068;47.662;-2.750;2023-07-16T04:57:25;18.30;76.20
81202;DHT22;71068;47.662;-2.750;2023-07-16T04:59:51;18.20;76.40
81202;DHT22;71068;47.662;-2.750;2023-07-16T05:02:17;18.20;76.50
81202;DHT22;71068;47.662;-2.750;2023-07-16T05:04:45;18.20;76.60
81202;DHT22;71068;47.662;-2.750;2023-07-16T05:07:13;18.20;76.50
81202;DHT22;71068;47.662;-2.750;2023-07-16T05:09:42;18.30;76.60
81202;DHT22;71068;47.662;-2.750;2023-07-16T05:12:09;18.20;76.30
81202;DHT22;71068;47.662;-2.750;2023-07-16T05:14:47;18.30;76.50
81202;DHT22;71068;47.662;-2.750;2023-07-16T05:17:14;18.40;76.40
81202;DHT22;71068;47.662;-2.750;2023-07-16T05:19:43;18.30;76.40
81202;DHT22;71068;47.662;-2.750;2023-07-16T05:22:10;18.40;76.20
81202;DHT22;71068;47.662;-2.750;2023-07-16T05:24:38;18.40;76.30
81202;DHT22;71068;47.662;-2.750;2023-07-16T05:27:04;18.30;76.70
81202;DHT22;71068;47.662;-2.750;2023-07-16T05:29:30;18.30;76.90
81202;DHT22;71068;47.662;-2.750;2023-07-16T05:31:56;18.50;76.50
81202;DHT22;71068;47.662;-2.750;2023-07-16T05:34:23;18.20;77.50
81202;DHT22;71068;47.662;-2.750;2023-07-16T05:36:49;18.40;76.70
81202;DHT22;71068;47.662;-2.750;2023-07-16T05:39:18;18.50;76.40
81202;DHT22;71068;47.662;-2.750;2023-07-16T05:41:45;18.50;76.20
81202;DHT22;71068;47.662;-2.750;2023-07-16T05:44:11;18.50;76.30
81202;DHT22;71068;47.662;-2.750;2023-07-16T05:46:39;18.50;76.20
81202;DHT22;71068;47.662;-2.750;2023-07-16T05:49:07;18.60;76.20
81202;DHT22;71068;47.662;-2.750;2023-07-16T05:51:34;18.70;76.00
81202;DHT22;71068;47.662;-2.750;2023-07-16T05:54:05;18.60;76.10
81202;DHT22;71068;47.662;-2.750;2023-07-16T05:56:32;18.80;75.70
81202;DHT22;71068;47.662;-2.750;2023-07-16T05:59:00;18.80;75.60
81202;DHT22;71068;47.662;-2.750;2023-07-16T06:01:26;18.90;75.60
81202;DHT22;71068;47.662;-2.750;2023-07-16T06:03:52;19.10;75.00
81202;DHT22;71068;47.662;-2.750;2023-07-16T06:06:19;19.10;75.00
81202;DHT22;71068;47.662;-2.750;2023-07-16T06:08:46;19.10;74.90
81202;DHT22;71068;47.662;-2.750;2023-07-16T06:11:13;19.10;74.60
81202;DHT22;71068;47.662;-2.750;2023-07-16T06:13:39;19.20;74.50
81202;DHT22;71068;47.662;-2.750;2023-07-16T06:16:06;19.30;74.40
81202;DHT22;71068;47.662;-2.750;2023-07-16T06:18:34;19.20;74.20
81202;DHT22;71068;47.662;-2.750;2023-07-16T06:21:00;19.30;74.10
81202;DHT22;71068;47.662;-2.750;2023-07-16T06:23:26;19.30;74.30
81202;DHT22;71068;47.662;-2.750;2023-07-16T06:25:56;19.40;74.40
81202;DHT22;71068;47.662;-2.750;2023-07-16T06:28:23;19.40;73.90
81202;DHT22;71068;47.662;-2.750;2023-07-16T06:30:51;19.40;73.70
81202;DHT22;71068;47.662;-2.750;2023-07-16T06:33:19;19.40;73.60
81202;DHT22;71068;47.662;-2.750;2023-07-16T06:35:47;19.60;73.70
81202;DHT22;71068;47.662;-2.750;2023-07-16T06:38:14;19.60;73.80
81202;DHT22;71068;47.662;-2.750;2023-07-16T06:40:46;19.50;73.80
81202;DHT22;71068;47.662;-2.750;2023-07-16T06:43:14;19.50;73.50
81202;DHT22;71068;47.662;-2.750;2023-07-16T06:45:40;19.50;73.60
81202;DHT22;71068;47.662;-2.750;2023-07-16T06:48:06;19.30;74.50
81202;DHT22;71068;47.662;-2.750;2023-07-16T06:50:35;19.50;74.00
81202;DHT22;71068;47.662;-2.750;2023-07-16T06:53:02;19.60;74.10
81202;DHT22;71068;47.662;-2.750;2023-07-16T06:55:29;19.60;73.70
81202;DHT22;71068;47.662;-2.750;2023-07-16T06:57:58;19.60;74.10
81202;DHT22;71068;47.662;-2.750;2023-07-16T07:00:24;19.70;74.00
81202;DHT22;71068;47.662;-2.750;2023-07-16T07:02:50;19.90;73.90
81202;DHT22;71068;47.662;-2.750;2023-07-16T07:05:17;19.90;73.50
81202;DHT22;71068;47.662;-2.750;2023-07-16T07:07:44;19.90;73.60
81202;DHT22;71068;47.662;-2.750;2023-07-16T07:10:12;20.00;73.30
81202;DHT22;71068;47.662;-2.750;2023-07-16T07:12:39;19.90;73.10
81202;DHT22;71068;47.662;-2.750;2023-07-16T07:15:07;19.90;72.30
81202;DHT22;71068;47.662;-2.750;2023-07-16T07:17:36;19.80;73.00
81202;DHT22;71068;47.662;-2.750;2023-07-16T07:20:02;19.70;73.10
81202;DHT22;71068;47.662;-2.750;2023-07-16T07:22:29;19.70;72.50
81202;DHT22;71068;47.662;-2.750;2023-07-16T07:24:57;19.80;72.60
81202;DHT22;71068;47.662;-2.750;2023-07-16T07:27:25;19.80;73.10
81202;DHT22;71068;47.662;-2.750;2023-07-16T07:29:54;19.60;73.70
81202;DHT22;71068;47.662;-2.750;2023-07-16T07:32:21;19.80;72.20
81202;DHT22;71068;47.662;-2.750;2023-07-16T07:34:48;19.90;72.20
81202;DHT22;71068;47.662;-2.750;2023-07-16T07:37:15;19.80;71.40
81202;DHT22;71068;47.662;-2.750;2023-07-16T07:39:43;20.10;70.50
81202;DHT22;71068;47.662;-2.750;2023-07-16T07:42:13;20.20;70.50
81202;DHT22;71068;47.662;-2.750;2023-07-16T07:44:45;20.30;70.50
81202;DHT22;71068;47.662;-2.750;2023-07-16T07:47:14;20.30;70.40
81202;DHT22;71068;47.662;-2.750;2023-07-16T07:49:45;20.30;71.30
81202;DHT22;71068;47.662;-2.750;2023-07-16T07:52:16;20.30;71.30
81202;DHT22;71068;47.662;-2.750;2023-07-16T07:54:41;20.40;71.20
81202;DHT22;71068;47.662;-2.750;2023-07-16T07:57:11;20.40;70.90
81202;DHT22;71068;47.662;-2.750;2023-07-16T07:59:55;20.40;68.60
81202;DHT22;71068;47.662;-2.750;2023-07-16T08:02:34;20.50;68.30
81202;DHT22;71068;47.662;-2.750;2023-07-16T08:05:00;20.40;68.20
81202;DHT22;71068;47.662;-2.750;2023-07-16T08:07:32;20.40;68.80
81202;DHT22;71068;47.662;-2.750;2023-07-16T08:09:59;20.40;68.90
81202;DHT22;71068;47.662;-2.750;2023-07-16T08:12:26;20.00;69.80
81202;DHT22;71068;47.662;-2.750;2023-07-16T08:14:53;20.20;68.90
81202;DHT22;71068;47.662;-2.750;2023-07-16T08:17:21;20.40;69.10
81202;DHT22;71068;47.662;-2.750;2023-07-16T08:19:50;20.40;68.40
81202;DHT22;71068;47.662;-2.750;2023-07-16T08:22:15;20.40;68.00
81202;DHT22;71068;47.662;-2.750;2023-07-16T08:24:43;20.40;68.40
81202;DHT22;71068;47.662;-2.750;2023-07-16T08:27:10;20.30;68.60
81202;DHT22;71068;47.662;-2.750;2023-07-16T08:29:47;20.30;68.90
81202;DHT22;71068;47.662;-2.750;2023-07-16T08:32:14;20.20;69.10
81202;DHT22;71068;47.662;-2.750;2023-07-16T08:34:41;20.20;69.20
81202;DHT22;71068;47.662;-2.750;2023-07-16T08:37:07;20.30;69.00
81202;DHT22;71068;47.662;-2.750;2023-07-16T08:39:34;20.30;68.90
81202;DHT22;71068;47.662;-2.750;2023-07-16T08:42:02;20.40;69.20
81202;DHT22;71068;47.662;-2.750;2023-07-16T08:44:29;20.50;69.20
81202;DHT22;71068;47.662;-2.750;2023-07-16T08:46:57;20.60;68.90
81202;DHT22;71068;47.662;-2.750;2023-07-16T08:49:25;20.20;70.50
81202;DHT22;71068;47.662;-2.750;2023-07-16T08:52:03;19.80;72.10
81202;DHT22;71068;47.662;-2.750;2023-07-16T08:54:38;20.20;70.50
81202;DHT22;71068;47.662;-2.750;2023-07-16T08:57:08;20.10;70.90
81202;DHT22;71068;47.662;-2.750;2023-07-16T08:59:40;20.00;71.50
81202;DHT22;71068;47.662;-2.750;2023-07-16T09:02:12;20.20;71.10
81202;DHT22;71068;47.662;-2.750;2023-07-16T09:04:49;20.40;70.70
81202;DHT22;71068;47.662;-2.750;2023-07-16T09:07:26;20.40;69.50
81202;DHT22;71068;47.662;-2.750;2023-07-16T09:09:57;20.60;69.50
81202;DHT22;71068;47.662;-2.750;2023-07-16T09:12:26;20.50;69.70
81202;DHT22;71068;47.662;-2.750;2023-07-16T09:14:56;20.50;70.00
81202;DHT22;71068;47.662;-2.750;2023-07-16T09:17:26;20.60;70.00
81202;DHT22;71068;47.662;-2.750;2023-07-16T09:19:57;20.80;69.30
81202;DHT22;71068;47.662;-2.750;2023-07-16T09:22:31;20.80;66.40
81202;DHT22;71068;47.662;-2.750;2023-07-16T09:25:00;20.90;66.80
81202;DHT22;71068;47.662;-2.750;2023-07-16T09:27:31;20.70;67.30
81202;DHT22;71068;47.662;-2.750;2023-07-16T09:30:00;20.70;67.10
81202;DHT22;71068;47.662;-2.750;2023-07-16T09:32:44;20.50;68.60
81202;DHT22;71068;47.662;-2.750;2023-07-16T09:35:15;20.70;67.60
81202;DHT22;71068;47.662;-2.750;2023-07-16T09:37:48;20.80;66.50
81202;DHT22;71068;47.662;-2.750;2023-07-16T09:40:18;20.90;65.00
81202;DHT22;71068;47.662;-2.750;2023-07-16T09:42:47;20.90;66.00
81202;DHT22;71068;47.662;-2.750;2023-07-16T09:45:18;21.00;65.00
81202;DHT22;71068;47.662;-2.750;2023-07-16T09:47:47;20.80;66.50
81202;DHT22;71068;47.662;-2.750;2023-07-16T09:50:21;21.20;64.00
81202;DHT22;71068;47.662;-2.750;2023-07-16T09:53:05;21.20;63.90
81202;DHT22;71068;47.662;-2.750;2023-07-16T09:55:36;21.10;63.80
81202;DHT22;71068;47.662;-2.750;2023-07-16T09:58:12;21.10;65.10
81202;DHT22;71068;47.662;-2.750;2023-07-16T10:00:39;21.20;62.70
81202;DHT22;71068;47.662;-2.750;2023-07-16T10:03:08;21.40;61.90
81202;DHT22;71068;47.662;-2.750;2023-07-16T10:05:38;21.50;61.40
81202;DHT22;71068;47.662;-2.750;2023-07-16T10:08:15;21.40;61.90
81202;DHT22;71068;47.662;-2.750;2023-07-16T10:10:45;21.40;61.80
81202;DHT22;71068;47.662;-2.750;2023-07-16T10:13:26;21.50;61.50
81202;DHT22;71068;47.662;-2.750;2023-07-16T10:16:02;21.50;62.20
81202;DHT22;71068;47.662;-2.750;2023-07-16T10:18:52;21.40;58.30
81202;DHT22;71068;47.662;-2.750;2023-07-16T10:21:49;21.60;58.50
81202;DHT22;71068;47.662;-2.750;2023-07-16T10:24:27;21.20;60.10
81202;DHT22;71068;47.662;-2.750;2023-07-16T10:27:00;21.40;59.30
81202;DHT22;71068;47.662;-2.750;2023-07-16T10:30:05;21.30;61.10
81202;DHT22;71068;47.662;-2.750;2023-07-16T10:32:42;21.30;61.20
81202;DHT22;71068;47.662;-2.750;2023-07-16T10:35:27;21.20;60.80
81202;DHT22;71068;47.662;-2.750;2023-07-16T10:37:54;21.30;60.90
81202;DHT22;71068;47.662;-2.750;2023-07-16T10:40:31;21.40;60.70
81202;DHT22;71068;47.662;-2.750;2023-07-16T10:43:18;21.40;61.80
81202;DHT22;71068;47.662;-2.750;2023-07-16T10:45:53;21.50;60.30
81202;DHT22;71068;47.662;-2.750;2023-07-16T10:48:47;21.60;60.80
81202;DHT22;71068;47.662;-2.750;2023-07-16T10:51:16;21.30;61.80
81202;DHT22;71068;47.662;-2.750;2023-07-16T10:53:44;21.30;63.20
81202;DHT22;71068;47.662;-2.750;2023-07-16T10:56:10;21.30;62.00
81202;DHT22;71068;47.662;-2.750;2023-07-16T10:58:38;21.50;61.50
81202;DHT22;71068;47.662;-2.750;2023-07-16T11:01:08;22.00;60.50
81202;DHT22;71068;47.662;-2.750;2023-07-16T11:03:40;21.80;60.30
81202;DHT22;71068;47.662;-2.750;2023-07-16T11:06:08;21.30;61.60
81202;DHT22;71068;47.662;-2.750;2023-07-16T11:08:40;21.60;59.60
81202;DHT22;71068;47.662;-2.750;2023-07-16T11:11:07;21.80;58.60
81202;DHT22;71068;47.662;-2.750;2023-07-16T11:13:34;22.00;57.20
81202;DHT22;71068;47.662;-2.750;2023-07-16T11:16:09;22.70;55.20
81202;DHT22;71068;47.662;-2.750;2023-07-16T11:18:37;22.60;54.60
81202;DHT22;71068;47.662;-2.750;2023-07-16T11:21:03;22.90;53.90
81202;DHT22;71068;47.662;-2.750;2023-07-16T11:23:34;22.90;52.60
81202;DHT22;71068;47.662;-2.750;2023-07-16T11:26:04;22.90;53.70
81202;DHT22;71068;47.662;-2.750;2023-07-16T11:28:40;22.60;55.00
81202;DHT22;71068;47.662;-2.750;2023-07-16T11:31:14;22.80;53.80
81202;DHT22;71068;47.662;-2.750;2023-07-16T11:33:46;23.10;52.80
81202;DHT22;71068;47.662;-2.750;2023-07-16T11:36:13;22.90;54.10
81202;DHT22;71068;47.662;-2.750;2023-07-16T11:38:39;22.70;55.00
81202;DHT22;71068;47.662;-2.750;2023-07-16T11:41:05;22.10;55.50
81202;DHT22;71068;47.662;-2.750;2023-07-16T11:43:36;22.10;55.80
81202;DHT22;71068;47.662;-2.750;2023-07-16T11:46:05;21.80;57.80
81202;DHT22;71068;47.662;-2.750;2023-07-16T11:48:40;22.10;57.30
81202;DHT22;71068;47.662;-2.750;2023-07-16T11:51:08;22.40;57.20
81202;DHT22;71068;47.662;-2.750;2023-07-16T11:53:34;22.80;55.90
81202;DHT22;71068;47.662;-2.750;2023-07-16T11:56:02;23.00;55.80
81202;DHT22;71068;47.662;-2.750;2023-07-16T11:58:28;23.00;54.90
81202;DHT22;71068;47.662;-2.750;2023-07-16T12:00:56;23.00;55.40
81202;DHT22;71068;47.662;-2.750;2023-07-16T12:03:22;23.10;55.10
81202;DHT22;71068;47.662;-2.750;2023-07-16T12:05:48;23.00;55.00
81202;DHT22;71068;47.662;-2.750;2023-07-16T12:08:14;23.30;55.00
81202;DHT22;71068;47.662;-2.750;2023-07-16T12:10:42;22.10;57.00
81202;DHT22;71068;47.662;-2.750;2023-07-16T12:13:13;22.60;53.40
81202;DHT22;71068;47.662;-2.750;2023-07-16T12:15:39;22.20;54.30
81202;DHT22;71068;47.662;-2.750;2023-07-16T12:18:12;22.40;54.50
81202;DHT22;71068;47.662;-2.750;2023-07-16T12:20:38;22.40;54.30
81202;DHT22;71068;47.662;-2.750;2023-07-16T12:23:06;22.30;54.50
81202;DHT22;71068;47.662;-2.750;2023-07-16T12:25:34;22.50;54.80
81202;DHT22;71068;47.662;-2.750;2023-07-16T12:28:01;22.80;55.40
81202;DHT22;71068;47.662;-2.750;2023-07-16T12:30:28;22.30;56.40
81202;DHT22;71068;47.662;-2.750;2023-07-16T12:32:54;22.70;55.20
81202;DHT22;71068;47.662;-2.750;2023-07-16T12:35:20;22.60;55.50
81202;DHT22;71068;47.662;-2.750;2023-07-16T12:37:46;22.00;57.80
81202;DHT22;71068;47.662;-2.750;2023-07-16T12:40:13;21.70;59.40
81202;DHT22;71068;47.662;-2.750;2023-07-16T12:42:41;21.70;59.90
81202;DHT22;71068;47.662;-2.750;2023-07-16T12:45:07;22.20;58.50
81202;DHT22;71068;47.662;-2.750;2023-07-16T12:47:35;22.30;57.70
81202;DHT22;71068;47.662;-2.750;2023-07-16T12:50:04;22.70;57.50
81202;DHT22;71068;47.662;-2.750;2023-07-16T12:52:31;23.00;56.90
81202;DHT22;71068;47.662;-2.750;2023-07-16T12:54:59;22.70;58.10
81202;DHT22;71068;47.662;-2.750;2023-07-16T12:57:26;22.50;59.40
81202;DHT22;71068;47.662;-2.750;2023-07-16T12:59:53;22.10;58.50
81202;DHT22;71068;47.662;-2.750;2023-07-16T13:02:19;22.60;56.60
81202;DHT22;71068;47.662;-2.750;2023-07-16T13:04:45;22.40;56.60
81202;DHT22;71068;47.662;-2.750;2023-07-16T13:07:11;22.20;57.50
81202;DHT22;71068;47.662;-2.750;2023-07-16T13:09:37;22.60;57.70
81202;DHT22;71068;47.662;-2.750;2023-07-16T13:12:04;22.80;55.70
81202;DHT22;71068;47.662;-2.750;2023-07-16T13:14:32;23.00;55.10
81202;DHT22;71068;47.662;-2.750;2023-07-16T13:17:00;23.10;55.80
81202;DHT22;71068;47.662;-2.750;2023-07-16T13:19:28;23.20;55.60
81202;DHT22;71068;47.662;-2.750;2023-07-16T13:21:53;23.20;55.60
81202;DHT22;71068;47.662;-2.750;2023-07-16T13:24:28;22.60;57.60
81202;DHT22;71068;47.662;-2.750;2023-07-16T13:26:54;22.90;56.80
81202;DHT22;71068;47.662;-2.750;2023-07-16T13:29:20;22.90;57.50
81202;DHT22;71068;47.662;-2.750;2023-07-16T13:31:50;22.30;59.80
81202;DHT22;71068;47.662;-2.750;2023-07-16T13:34:17;22.70;56.80
81202;DHT22;71068;47.662;-2.750;2023-07-16T13:36:43;22.90;56.80
81202;DHT22;71068;47.662;-2.750;2023-07-16T13:39:10;22.30;59.30
81202;DHT22;71068;47.662;-2.750;2023-07-16T13:41:39;22.80;57.70
81202;DHT22;71068;47.662;-2.750;2023-07-16T13:44:25;22.90;58.10
81202;DHT22;71068;47.662;-2.750;2023-07-16T13:46:52;23.00;58.10
81202;DHT22;71068;47.662;-2.750;2023-07-16T13:49:22;22.60;57.30
81202;DHT22;71068;47.662;-2.750;2023-07-16T13:51:48;23.10;56.80
81202;DHT22;71068;47.662;-2.750;2023-07-16T13:54:15;23.40;55.90
81202;DHT22;71068;47.662;-2.750;2023-07-16T13:57:11;23.40;55.40
81202;DHT22;71068;47.662;-2.750;2023-07-16T13:59:41;23.50;55.00
81202;DHT22;71068;47.662;-2.750;2023-07-16T14:02:14;23.40;54.60
81202;DHT22;71068;47.662;-2.750;2023-07-16T14:04:44;23.30;56.10
81202;DHT22;71068;47.662;-2.750;2023-07-16T14:07:15;22.80;57.30
81202;DHT22;71068;47.662;-2.750;2023-07-16T14:09:43;22.40;58.50
81202;DHT22;71068;47.662;-2.750;2023-07-16T14:12:15;22.30;57.70
81202;DHT22;71068;47.662;-2.750;2023-07-16T14:14:43;22.70;56.90
81202;DHT22;71068;47.662;-2.750;2023-07-16T14:17:19;22.70;56.50
81202;DHT22;71068;47.662;-2.750;2023-07-16T14:19:54;22.80;55.70
81202;DHT22;71068;47.662;-2.750;2023-07-16T14:22:30;22.80;55.50
81202;DHT22;71068;47.662;-2.750;2023-07-16T14:25:01;22.50;56.60
81202;DHT22;71068;47.662;-2.750;2023-07-16T14:27:31;22.30;57.30
81202;DHT22;71068;47.662;-2.750;2023-07-16T14:30:00;22.50;57.40
81202;DHT22;71068;47.662;-2.750;2023-07-16T14:32:28;22.50;57.90
81202;DHT22;71068;47.662;-2.750;2023-07-16T14:34:59;22.50;57.80
81202;DHT22;71068;47.662;-2.750;2023-07-16T14:37:39;22.50;56.80
81202;DHT22;71068;47.662;-2.750;2023-07-16T14:40:09;22.50;57.30
81202;DHT22;71068;47.662;-2.750;2023-07-16T14:42:36;22.80;56.70
81202;DHT22;71068;47.662;-2.750;2023-07-16T14:45:05;23.10;56.00
81202;DHT22;71068;47.662;-2.750;2023-07-16T14:47:52;23.30;55.80
81202;DHT22;71068;47.662;-2.750;2023-07-16T14:50:23;23.30;55.90
81202;DHT22;71068;47.662;-2.750;2023-07-16T14:52:55;23.20;55.30
81202;DHT22;71068;47.662;-2.750;2023-07-16T14:55:34;23.00;56.90
81202;DHT22;71068;47.662;-2.750;2023-07-16T14:58:01;23.00;57.10
81202;DHT22;71068;47.662;-2.750;2023-07-16T15:00:35;23.20;56.80
81202;DHT22;71068;47.662;-2.750;2023-07-16T15:03:04;23.10;56.90
81202;DHT22;71068;47.662;-2.750;2023-07-16T15:05:36;23.20;56.60
81202;DHT22;71068;47.662;-2.750;2023-07-16T15:08:10;22.90;57.40
81202;DHT22;71068;47.662;-2.750;2023-07-16T15:10:36;21.90;59.80
81202;DHT22;71068;47.662;-2.750;2023-07-16T15:13:04;21.90;60.40
81202;DHT22;71068;47.662;-2.750;2023-07-16T15:15:32;22.20;59.10
81202;DHT22;71068;47.662;-2.750;2023-07-16T15:17:58;22.40;58.40
81202;DHT22;71068;47.662;-2.750;2023-07-16T15:20:34;22.60;57.10
81202;DHT22;71068;47.662;-2.750;2023-07-16T15:23:00;22.20;56.70
81202;DHT22;71068;47.662;-2.750;2023-07-16T15:25:32;22.40;56.30
81202;DHT22;71068;47.662;-2.750;2023-07-16T15:28:04;22.70;56.00
81202;DHT22;71068;47.662;-2.750;2023-07-16T15:30:33;22.90;55.70
81202;DHT22;71068;47.662;-2.750;2023-07-16T15:33:00;22.90;56.60
81202;DHT22;71068;47.662;-2.750;2023-07-16T15:35:27;23.00;55.50